Time;durP1;ratioP1;P1;durP2;ratioP2;P2;SDS_P1;SDS_P2;PMS_P1;PMS_P2;Temp;Humidity;BMP_temperature;BMP_pressure;BME280_temperature;BME280_humidity;BME280_pressure;Samples;Min_cycle;Max_cycle;Signal;HPM_P1;HPM_P2
2024/01/09 00:01:35;;;;;;;52.00;24.80;;;;;;;-10.54;59.60;102166.27;103297;1250;97553;-70
2024/01/09 00:04:01;;;;;;;56.20;26.60;;;;;;;-10.54;59.74;102163.40;103282;1250;110312;-70
2024/01/09 00:06:29;;;;;;;53.40;24.60;;;;;;;-10.55;59.71;102158.59;103141;1251;138586;-70
2024/01/09 00:08:58;;;;;;;51.50;24.70;;;;;;;-10.53;59.70;102159.13;103316;1253;96316;-72
2024/01/09 00:11:25;;;;;;;48.40;24.90;;;;;;;-10.52;59.89;102158.20;104729;1250;138616;-70
2024/01/09 00:13:52;;;;;;;57.80;27.20;;;;;;;-10.50;59.95;102153.83;104841;1250;94663;-70
2024/01/09 00:16:19;;;;;;;58.30;25.90;;;;;;;-10.52;59.60;102150.58;104829;1250;110842;-71
2024/01/09 00:18:45;;;;;;;55.80;26.30;;;;;;;-10.56;59.48;102139.52;104669;1250;138811;-71
2024/01/09 00:21:12;;;;;;;59.40;25.80;;;;;;;-10.56;59.75;102146.09;104836;1251;95263;-72
2024/01/09 00:23:39;;;;;;;56.20;25.80;;;;;;;-10.57;59.64;102147.54;103795;1250;1015134;-71
2024/01/09 00:26:07;;;;;;;52.60;25.40;;;;;;;-10.58;59.85;102148.57;103373;1251;96362;-70
2024/01/09 00:28:34;;;;;;;55.90;26.90;;;;;;;-10.53;59.87;102149.50;103384;1251;110081;-71
2024/01/09 00:31:01;;;;;;;54.30;24.60;;;;;;;-10.53;59.66;102151.02;103594;1251;138867;-71
2024/01/09 00:33:28;;;;;;;51.80;25.20;;;;;;;-10.49;59.84;102145.98;103323;1251;96522;-71
2024/01/09 00:35:55;;;;;;;49.30;23.30;;;;;;;-10.46;59.77;102140.50;103211;1251;138666;-71
2024/01/09 00:38:22;;;;;;;51.00;24.10;;;;;;;-10.43;59.85;102145.84;103540;1250;96300;-70
2024/01/09 00:40:49;;;;;;;52.10;25.00;;;;;;;-10.42;59.54;102140.52;104767;1253;139444;-70
2024/01/09 00:43:16;;;;;;;50.20;25.10;;;;;;;-10.45;59.58;102144.48;104810;1249;107410;-70
2024/01/09 00:45:43;;;;;;;53.90;24.70;;;;;;;-10.47;59.56;102140.05;104596;1251;95359;-70
2024/01/09 00:48:11;;;;;;;49.50;25.00;;;;;;;-10.47;59.69;102141.82;102645;1253;1003002;-70
2024/01/09 00:50:39;;;;;;;56.50;24.90;;;;;;;-10.48;59.55;102142.65;103220;1251;96383;-70
2024/01/09 00:53:07;;;;;;;48.70;24.10;;;;;;;-10.52;59.60;102138.37;103169;1253;138834;-70
2024/01/09 00:55:34;;;;;;;53.90;24.70;;;;;;;-10.52;59.52;102135.95;103723;1251;105746;-70
2024/01/09 00:58:01;;;;;;;47.50;23.10;;;;;;;-10.55;59.65;102141.27;103301;1253;96315;-70
2024/01/09 01:00:28;;;;;;;52.00;25.00;;;;;;;-10.58;59.53;102146.60;103150;1251;138413;-69
2024/01/09 01:02:55;;;;;;;52.80;24.60;;;;;;;-10.59;59.76;102140.61;102591;1251;1003385;-69
2024/01/09 01:05:24;;;;;;;53.30;24.60;;;;;;;-10.60;59.75;102143.06;103256;1249;139266;-69
2024/01/09 01:07:51;;;;;;;50.00;24.60;;;;;;;-10.58;59.96;102147.20;103345;1249;107897;-70
2024/01/09 01:10:18;;;;;;;49.60;24.00;;;;;;;-10.61;59.89;102147.34;103400;1251;96300;-70
2024/01/09 01:12:47;;;;;;;48.80;24.20;;;;;;;-10.64;59.85;102144.02;103238;1249;139683;-69
2024/01/09 01:15:14;;;;;;;48.60;24.30;;;;;;;-10.65;60.04;102143.45;103347;1250;96386;-70
2024/01/09 01:17:41;;;;;;;50.90;24.20;;;;;;;-10.66;59.91;102143.20;103220;1250;138459;-71
2024/01/09 01:20:10;;;;;;;53.40;25.10;;;;;;;-10.65;60.04;102143.66;103268;1253;107753;-70
2024/01/09 01:22:37;;;;;;;51.00;24.00;;;;;;;-10.62;60.15;102146.40;103646;1251;96344;-71
2024/01/09 01:25:04;;;;;;;51.60;24.50;;;;;;;-10.58;60.19;102149.30;102409;1250;1003397;-70
2024/01/09 01:27:31;;;;;;;52.80;24.80;;;;;;;-10.54;60.17;102149.98;103351;1249;96398;-71
2024/01/09 01:29:58;;;;;;;52.20;24.80;;;;;;;-10.52;60.24;102153.17;103233;1251;138613;-71
2024/01/09 01:32:25;;;;;;;54.30;24.70;;;;;;;-10.50;60.16;102155.97;102884;1251;1002923;-69
2024/01/09 01:34:53;;;;;;;50.60;24.30;;;;;;;-10.51;59.99;102158.27;103225;1251;140729;-70
2024/01/09 01:37:20;;;;;;;59.60;24.60;;;;;;;-10.52;60.17;102159.84;102511;1253;1002937;-71
2024/01/09 01:39:47;;;;;;;57.20;26.60;;;;;;;-10.55;60.04;102156.89;103356;1252;96312;-71
2024/01/09 01:42:14;;;;;;;50.20;24.60;;;;;;;-10.61;60.27;102148.17;103283;1253;138529;-69
2024/01/09 01:44:40;;;;;;;49.10;23.60;;;;;;;-10.60;60.19;102151.89;102571;1251;1003649;-69
2024/01/09 01:47:07;;;;;;;48.90;23.80;;;;;;;-10.60;60.51;102153.67;103214;1250;139563;-70
2024/01/09 01:49:34;;;;;;;47.00;23.80;;;;;;;-10.59;60.59;102151.84;102581;1253;1003440;-70
2024/01/09 01:52:02;;;;;;;50.10;24.70;;;;;;;-10.61;60.66;102156.38;102493;1253;1015323;-70
2024/01/09 01:54:31;;;;;;;51.80;23.80;;;;;;;-10.62;60.44;102157.29;103238;1253;138681;-70
2024/01/09 01:57:00;;;;;;;53.20;25.10;;;;;;;-10.63;60.43;102156.56;104787;1250;106766;-71
2024/01/09 01:59:28;;;;;;;49.10;24.70;;;;;;;-10.64;60.42;102158.51;103603;1253;139524;-67
2024/01/09 02:01:56;;;;;;;53.20;25.60;;;;;;;-10.66;60.44;102164.41;103695;1254;107707;-70
2024/01/09 02:04:24;;;;;;;54.70;25.50;;;;;;;-10.68;60.55;102161.77;102561;1253;1002585;-71
2024/01/09 02:06:52;;;;;;;48.50;24.00;;;;;;;-10.68;60.65;102163.28;103315;1251;139140;-70
2024/01/09 02:09:19;;;;;;;50.40;24.50;;;;;;;-10.65;60.69;102163.58;103338;1249;108885;-70
2024/01/09 02:11:48;;;;;;;46.40;24.60;;;;;;;-10.65;60.82;102162.11;103207;1253;138966;-70
2024/01/09 02:14:15;;;;;;;48.40;24.70;;;;;;;-10.66;60.84;102164.86;104031;1250;107113;-70
2024/01/09 02:16:43;;;;;;;52.60;24.50;;;;;;;-10.72;60.88;102166.77;103527;1250;96533;-71
2024/01/09 02:19:10;;;;;;;50.20;24.60;;;;;;;-10.73;60.85;102164.02;104896;1251;108197;-70
2024/01/09 02:21:36;;;;;;;48.60;25.30;;;;;;;-10.73;60.98;102167.54;104116;1251;105645;-69
2024/01/09 02:24:03;;;;;;;51.50;25.00;;;;;;;-10.73;61.20;102165.52;104683;1251;138690;-70
2024/01/09 02:26:33;;;;;;;51.30;25.20;;;;;;;-10.72;61.16;102166.41;104776;1253;106698;-71
2024/01/09 02:29:25;;;;;;;53.30;24.50;;;;;;;-10.70;61.30;102167.09;103878;1251;139713;-70
2024/01/09 02:31:53;;;;;;;57.40;25.50;;;;;;;-10.70;61.19;102176.38;104831;1251;109879;-69
2024/01/09 02:34:21;;;;;;;57.40;26.20;;;;;;;-10.71;61.31;102174.55;103460;1253;107010;-70
2024/01/09 02:36:48;;;;;;;54.40;25.00;;;;;;;-10.71;61.19;102169.35;103314;1250;138590;-70
2024/01/09 02:39:15;;;;;;;57.50;26.10;;;;;;;-10.73;61.06;102168.85;103312;1250;108267;-70
2024/01/09 02:41:43;;;;;;;56.10;25.70;;;;;;;-10.75;60.97;102169.05;103369;1250;138647;-70
2024/01/09 02:44:11;;;;;;;51.40;24.70;;;;;;;-10.76;61.26;102168.48;104148;1250;110357;-71
2024/01/09 02:46:38;;;;;;;50.20;24.30;;;;;;;-10.77;61.11;102166.96;103952;1250;1003486;-70
2024/01/09 02:49:05;;;;;;;57.60;26.00;;;;;;;-10.78;61.51;102167.43;103592;1249;139266;-70
2024/01/09 02:51:32;;;;;;;51.60;24.30;;;;;;;-10.77;61.36;102169.04;104856;1249;107544;-71
2024/01/09 02:53:59;;;;;;;49.10;25.30;;;;;;;-10.77;61.64;102170.55;103624;1251;139062;-71
2024/01/09 02:56:27;;;;;;;51.70;24.50;;;;;;;-10.78;61.43;102167.86;103524;1251;110179;-70
2024/01/09 02:58:54;;;;;;;48.70;24.90;;;;;;;-10.79;61.57;102165.16;104748;1249;142268;-71
2024/01/09 03:01:20;;;;;;;47.10;24.50;;;;;;;-10.76;61.70;102163.70;104830;1249;95135;-71
2024/01/09 03:03:50;;;;;;;49.60;23.70;;;;;;;-10.74;61.73;102162.20;104182;1251;107420;-70
2024/01/09 03:06:17;;;;;;;53.50;25.30;;;;;;;-10.71;61.41;102159.83;104338;1251;138645;-70
2024/01/09 03:08:44;;;;;;;50.80;24.70;;;;;;;-10.71;61.53;102158.63;104920;1251;109851;-71
2024/01/09 03:11:11;;;;;;;52.00;25.10;;;;;;;-10.66;61.60;102162.86;103946;1251;141789;-71
2024/01/09 03:13:38;;;;;;;50.20;24.50;;;;;;;-10.63;61.40;102166.48;104065;1250;1002868;-70
2024/01/09 03:16:12;;;;;;;53.40;24.40;;;;;;;-10.61;61.55;102164.95;103747;1252;107018;-69
2024/01/09 03:18:39;;;;;;;49.60;23.70;;;;;;;-10.62;61.34;102158.30;103187;1251;138651;-71
2024/01/09 03:21:06;;;;;;;53.80;24.30;;;;;;;-10.60;61.32;102167.77;104261;1250;109708;-71
2024/01/09 03:23:34;;;;;;;53.20;24.90;;;;;;;-10.57;61.41;102166.34;103512;1250;139156;-70
2024/01/09 03:26:01;;;;;;;53.20;24.90;;;;;;;-10.58;61.24;102169.56;104598;1251;94766;-71
2024/01/09 03:28:28;;;;;;;53.50;26.30;;;;;;;-10.60;61.36;102170.05;104571;1249;107437;-70
2024/01/09 03:30:55;;;;;;;48.50;22.80;;;;;;;-10.59;61.40;102171.85;104656;1250;139560;-71
2024/01/09 03:33:22;;;;;;;55.70;24.80;;;;;;;-10.56;61.44;102177.48;104831;1251;109694;-71
2024/01/09 03:35:49;;;;;;;53.00;25.70;;;;;;;-10.51;61.41;102177.05;104694;1250;138451;-71
2024/01/09 03:38:16;;;;;;;50.70;24.40;;;;;;;-10.50;61.42;102182.88;104881;1253;94729;-70
2024/01/09 03:40:43;;;;;;;52.90;25.90;;;;;;;-10.50;61.24;102178.66;103520;1250;1002840;-70
2024/01/09 03:43:10;;;;;;;54.80;26.40;;;;;;;-10.54;61.03;102180.20;104814;1250;94357;-69
2024/01/09 03:45:37;;;;;;;55.60;26.60;;;;;;;-10.58;61.01;102176.50;103681;1253;109934;-70
2024/01/09 03:48:05;;;;;;;53.90;26.00;;;;;;;-10.63;60.85;102172.48;103341;1251;138843;-70
2024/01/09 03:50:32;;;;;;;51.60;25.00;;;;;;;-10.68;60.88;102170.13;104769;1250;94967;-70
2024/01/09 03:52:59;;;;;;;56.80;25.50;;;;;;;-10.69;61.23;102172.02;103877;1251;1014961;-71
2024/01/09 03:55:26;;;;;;;55.40;26.00;;;;;;;-10.73;61.05;102168.05;104261;1250;96502;-70
2024/01/09 03:57:53;;;;;;;53.00;26.40;;;;;;;-10.72;61.23;102168.98;103457;1251;110622;-70
2024/01/09 04:00:20;;;;;;;57.10;26.00;;;;;;;-10.72;61.31;102170.96;102741;1250;1004139;-71
2024/01/09 04:02:47;;;;;;;53.20;26.40;;;;;;;-10.72;61.42;102171.97;103379;1253;96949;-70
2024/01/09 04:05:14;;;;;;;55.80;26.60;;;;;;;-10.72;61.36;102167.11;103487;1249;139614;-71
2024/01/09 04:07:41;;;;;;;56.10;26.60;;;;;;;-10.70;61.43;102168.45;104872;1251;94659;-70
2024/01/09 04:10:09;;;;;;;59.80;28.00;;;;;;;-10.67;61.31;102168.34;104005;1249;109623;-71
2024/01/09 04:12:36;;;;;;;57.80;27.90;;;;;;;-10.67;61.28;102164.64;104704;1251;138691;-70
2024/01/09 04:15:03;;;;;;;58.10;29.10;;;;;;;-10.67;61.16;102165.85;104047;1250;96324;-71
2024/01/09 04:17:30;;;;;;;60.00;27.40;;;;;;;-10.68;61.04;102168.89;104646;1249;138267;-71
2024/01/09 04:19:57;;;;;;;58.10;27.80;;;;;;;-10.69;61.37;102168.02;104787;1251;94729;-70
2024/01/09 04:22:24;;;;;;;56.00;27.40;;;;;;;-10.70;61.24;102169.65;104845;1249;109028;-71
2024/01/09 04:24:51;;;;;;;54.10;26.40;;;;;;;-10.67;61.23;102168.55;104434;1251;139544;-72
2024/01/09 04:27:18;;;;;;;55.40;28.10;;;;;;;-10.61;61.22;102167.66;102580;1251;1003023;-70
2024/01/09 04:29:45;;;;;;;57.00;27.50;;;;;;;-10.47;61.39;102167.31;102391;1250;1003103;-70
2024/01/09 04:32:12;;;;;;;59.10;27.50;;;;;;;-10.46;61.17;102165.58;103324;1251;96318;-70
2024/01/09 04:34:40;;;;;;;61.50;29.30;;;;;;;-10.52;60.80;102163.87;103394;1253;110434;-70
2024/01/09 04:37:07;;;;;;;64.10;29.20;;;;;;;-10.59;60.82;102165.86;103269;1249;107984;-70
2024/01/09 04:39:34;;;;;;;54.20;27.10;;;;;;;-10.66;60.91;102163.73;103341;1253;96440;-71
2024/01/09 04:42:01;;;;;;;62.20;28.40;;;;;;;-10.70;60.75;102162.73;103252;1251;138579;-70
2024/01/09 04:44:28;;;;;;;62.30;29.70;;;;;;;-10.78;60.92;102162.91;103249;1251;96338;-71
2024/01/09 04:46:55;;;;;;;62.90;29.60;;;;;;;-10.78;61.09;102158.29;101737;1251;1003272;-71
2024/01/09 04:49:22;;;;;;;63.90;31.00;;;;;;;-10.71;61.14;102158.23;103295;1251;108270;-71
2024/01/09 04:51:49;;;;;;;65.60;31.30;;;;;;;-10.69;61.28;102153.77;103413;1251;96516;-70
2024/01/09 04:54:15;;;;;;;71.20;33.00;;;;;;;-10.66;61.27;102155.13;103176;1251;139221;-72
2024/01/09 04:56:43;;;;;;;70.90;33.40;;;;;;;-10.61;61.35;102155.91;102580;1251;1003142;-69
2024/01/09 04:59:10;;;;;;;70.50;34.10;;;;;;;-10.66;60.91;102161.36;103168;1251;139645;-70
2024/01/09 05:01:37;;;;;;;69.40;34.20;;;;;;;-10.79;60.99;102163.85;103196;1253;107816;-70
2024/01/09 05:04:04;;;;;;;71.20;33.20;;;;;;;-10.87;61.09;102167.81;103329;1251;97064;-71
2024/01/09 05:06:36;;;;;;;70.50;33.60;;;;;;;-10.92;61.03;102171.94;103193;1251;138323;-71
2024/01/09 05:09:03;;;;;;;71.30;33.90;;;;;;;-10.97;61.34;102167.20;103332;1250;96427;-70
2024/01/09 05:11:30;;;;;;;65.70;31.70;;;;;;;-10.98;61.33;102167.88;103236;1251;138773;-70
2024/01/09 05:13:57;;;;;;;63.90;30.50;;;;;;;-10.95;61.69;102165.09;103349;1251;107173;-70
2024/01/09 05:16:24;;;;;;;64.50;30.30;;;;;;;-10.91;61.53;102161.64;103367;1251;96506;-71
2024/01/09 05:18:51;;;;;;;66.40;31.60;;;;;;;-10.86;61.72;102166.61;102691;1253;1003321;-68
2024/01/09 05:21:18;;;;;;;65.00;30.70;;;;;;;-10.81;61.68;102167.14;103321;1253;96369;-71
2024/01/09 05:23:45;;;;;;;69.90;31.60;;;;;;;-10.76;61.60;102165.41;103184;1251;138395;-70
2024/01/09 05:26:12;;;;;;;61.10;30.10;;;;;;;-10.76;61.28;102169.91;103262;1251;107487;-71
2024/01/09 05:28:39;;;;;;;64.80;31.20;;;;;;;-10.85;61.15;102170.69;103812;1253;96504;-70
2024/01/09 05:31:06;;;;;;;69.50;31.80;;;;;;;-10.91;61.24;102169.83;103190;1251;138283;-71
2024/01/09 05:33:35;;;;;;;69.40;32.10;;;;;;;-10.97;61.28;102171.20;103329;1251;96385;-71
2024/01/09 05:36:03;;;;;;;66.90;31.80;;;;;;;-11.08;61.30;102177.98;103183;1251;138603;-71
2024/01/09 05:38:30;;;;;;;70.90;30.20;;;;;;;-11.13;61.69;102178.89;102692;1253;1002949;-71
2024/01/09 05:40:57;;;;;;;66.80;31.00;;;;;;;-11.14;61.60;102171.45;103218;1253;141246;-71
2024/01/09 05:43:24;;;;;;;66.20;30.10;;;;;;;-11.12;61.89;102173.92;103332;1251;107940;-71
2024/01/09 05:45:51;;;;;;;67.50;31.30;;;;;;;-11.06;61.94;102174.80;103211;1254;96355;-71
2024/01/09 05:48:18;;;;;;;68.50;31.90;;;;;;;-11.02;61.99;102174.17;103112;1250;139444;-71
2024/01/09 05:50:45;;;;;;;67.90;31.30;;;;;;;-11.02;61.92;102174.13;103340;1251;107309;-71
2024/01/09 05:53:12;;;;;;;71.90;33.70;;;;;;;-10.98;62.07;102174.84;103181;1251;139161;-72
2024/01/09 05:55:39;;;;;;;71.60;31.80;;;;;;;-10.87;61.94;102176.39;103342;1251;107826;-72
2024/01/09 05:58:07;;;;;;;72.10;31.70;;;;;;;-10.84;61.89;102173.44;103315;1253;96422;-71
2024/01/09 06:00:35;;;;;;;67.70;31.70;;;;;;;-10.90;61.74;102178.20;103152;1253;139141;-71
2024/01/09 06:03:02;;;;;;;68.00;32.20;;;;;;;-10.94;61.67;102177.17;103213;1253;106291;-69
2024/01/09 06:05:29;;;;;;;65.20;31.70;;;;;;;-10.99;61.87;102178.94;103101;1253;138598;-74
2024/01/09 06:07:56;;;;;;;67.70;32.50;;;;;;;-10.99;61.76;102182.12;102498;1249;1003329;-72
2024/01/09 06:10:23;;;;;;;72.00;33.90;;;;;;;-10.99;62.06;102183.63;103259;1253;96876;-71
2024/01/09 06:12:50;;;;;;;69.30;33.70;;;;;;;-10.99;61.97;102191.34;103220;1249;138352;-73
2024/01/09 06:15:17;;;;;;;72.90;34.00;;;;;;;-11.04;62.21;102195.52;103254;1253;107991;-70
2024/01/09 06:17:44;;;;;;;70.00;33.00;;;;;;;-11.05;62.30;102195.42;103188;1250;139135;-72
2024/01/09 06:20:13;;;;;;;70.40;32.30;;;;;;;-11.02;62.38;102200.51;102456;1255;1002946;-70
2024/01/09 06:22:40;;;;;;;66.10;31.60;;;;;;;-10.97;62.53;102197.40;104053;1250;1003089;-70
2024/01/09 06:25:08;;;;;;;77.50;34.90;;;;;;;-10.95;62.19;102203.63;103339;1249;1003193;-71
2024/01/09 06:27:35;;;;;;;70.60;33.00;;;;;;;-11.01;62.20;102202.12;103262;1251;106713;-72
2024/01/09 06:30:02;;;;;;;69.90;32.70;;;;;;;-11.02;62.12;102209.25;103205;1253;139800;-70
2024/01/09 06:32:29;;;;;;;68.50;32.60;;;;;;;-11.02;62.33;102210.23;102613;1251;1002915;-71
2024/01/09 06:34:56;;;;;;;70.90;33.40;;;;;;;-11.03;62.11;102214.21;102397;1251;1002850;-71
2024/01/09 06:37:23;;;;;;;67.50;32.10;;;;;;;-11.07;62.12;102216.61;103321;1253;108913;-73
2024/01/09 06:39:50;;;;;;;68.90;33.50;;;;;;;-11.05;62.37;102205.31;103283;1253;108347;-71
2024/01/09 06:42:17;;;;;;;68.20;33.00;;;;;;;-11.02;62.45;102211.47;103229;1253;139659;-73
2024/01/09 06:44:43;;;;;;;64.80;33.30;;;;;;;-11.01;62.56;102211.19;102610;1251;1003424;-73
2024/01/09 06:47:10;;;;;;;62.70;31.00;;;;;;;-11.03;62.29;102208.30;103110;1251;139536;-71
2024/01/09 06:49:37;;;;;;;66.80;32.00;;;;;;;-11.00;62.72;102209.70;103209;1251;109685;-73
2024/01/09 06:52:05;;;;;;;63.30;31.80;;;;;;;-11.01;62.63;102210.48;103181;1249;106496;-73
2024/01/09 06:54:32;;;;;;;82.30;35.30;;;;;;;-11.01;62.54;102211.73;103152;1253;138646;-72
2024/01/09 06:56:58;;;;;;;71.50;32.90;;;;;;;-11.02;62.50;102217.46;102439;1251;1002923;-73
2024/01/09 06:59:25;;;;;;;70.70;32.40;;;;;;;-11.03;62.63;102220.92;103274;1251;139247;-72
2024/01/09 07:01:52;;;;;;;68.90;33.50;;;;;;;-11.02;62.66;102223.03;103731;1253;109536;-72
2024/01/09 07:04:19;;;;;;;71.10;33.50;;;;;;;-10.99;62.65;102221.80;103614;1250;107395;-71
2024/01/09 07:06:46;;;;;;;74.00;34.00;;;;;;;-10.94;62.78;102221.98;103553;1253;1003568;-72
2024/01/09 07:09:13;;;;;;;66.40;33.40;;;;;;;-10.87;62.99;102229.64;104219;1250;1002951;-72
2024/01/09 07:11:40;;;;;;;67.30;32.20;;;;;;;-10.80;62.87;102232.13;103915;1251;139075;-72
2024/01/09 07:14:09;;;;;;;66.40;32.90;;;;;;;-10.67;62.81;102237.90;104410;1250;109370;-73
2024/01/09 07:16:36;;;;;;;71.90;32.90;;;;;;;-10.52;62.75;102233.64;103481;1249;106737;-72
2024/01/09 07:19:05;;;;;;;64.80;31.60;;;;;;;-10.34;62.61;102232.83;102942;1253;1002881;-74
2024/01/09 07:21:32;;;;;;;69.20;32.50;;;;;;;-10.17;62.60;102233.84;103684;1249;108486;-72
2024/01/09 07:23:59;;;;;;;66.00;32.40;;;;;;;-9.99;62.37;102238.52;103710;1253;139815;-71
2024/01/09 07:26:26;;;;;;;70.30;32.60;;;;;;;-9.76;62.23;102234.69;103783;1249;111207;-73
2024/01/09 07:28:53;;;;;;;68.80;33.80;;;;;;;-9.54;62.15;102234.47;103813;1251;139272;-71
2024/01/09 07:31:19;;;;;;;68.70;34.30;;;;;;;-9.24;61.87;102234.11;103660;1253;96469;-72
2024/01/09 07:33:46;;;;;;;72.80;35.20;;;;;;;-8.98;61.86;102232.01;103367;1250;1002935;-72
2024/01/09 07:36:13;;;;;;;65.70;33.50;;;;;;;-8.65;62.16;102234.04;104417;1253;138744;-71
2024/01/09 07:38:40;;;;;;;73.40;35.30;;;;;;;-8.30;61.64;102233.31;104112;1252;110868;-72
2024/01/09 07:41:07;;;;;;;68.90;34.50;;;;;;;-7.93;61.49;102236.02;103303;1251;138864;-73
2024/01/09 07:43:34;;;;;;;72.10;35.80;;;;;;;-7.52;61.09;102237.19;103329;1251;96440;-73
2024/01/09 07:46:03;;;;;;;78.60;39.30;;;;;;;-7.15;60.49;102232.55;103412;1251;107884;-73
2024/01/09 07:48:30;;;;;;;81.60;39.60;;;;;;;-6.85;59.74;102229.61;103288;1251;138744;-74
2024/01/09 07:51:01;;;;;;;88.80;43.10;;;;;;;-6.55;59.12;102234.73;103455;1249;109163;-72
2024/01/09 07:53:29;;;;;;;82.20;41.50;;;;;;;-6.30;58.66;102238.84;103353;1250;137855;-73
2024/01/09 07:55:56;;;;;;;76.70;39.60;;;;;;;-6.03;58.41;102241.63;103503;1253;96447;-72
2024/01/09 07:58:23;;;;;;;81.80;42.40;;;;;;;-5.79;57.88;102246.27;103516;1251;106789;-73
2024/01/09 08:00:50;;;;;;;82.30;39.80;;;;;;;-5.56;57.61;102242.34;102644;1253;1003328;-74
2024/01/09 08:03:17;;;;;;;78.30;41.10;;;;;;;-5.40;56.63;102243.51;102761;1253;1003529;-73
2024/01/09 08:05:48;;;;;;;82.60;41.10;;;;;;;-5.24;56.53;102240.33;103451;1251;138547;-73
2024/01/09 08:08:15;;;;;;;76.80;41.70;;;;;;;-5.07;56.02;102240.73;103731;1249;96332;-73
2024/01/09 08:10:42;;;;;;;77.20;41.20;;;;;;;-4.90;56.12;102240.09;104206;1253;107312;-71
2024/01/09 08:13:09;;;;;;;81.60;43.10;;;;;;;-4.72;55.51;102239.98;103557;1251;96453;-72
2024/01/09 08:15:36;;;;;;;73.60;40.30;;;;;;;-4.58;54.96;102240.86;102126;1253;1003682;-72
2024/01/09 08:18:03;;;;;;;72.30;41.70;;;;;;;-4.47;54.21;102239.84;102633;1250;1003031;-72
2024/01/09 08:20:30;;;;;;;80.80;42.50;;;;;;;-4.31;54.47;102239.80;103497;1251;96338;-73
2024/01/09 08:22:57;;;;;;;86.60;45.40;;;;;;;-4.11;54.10;102242.83;103404;1251;138091;-72
2024/01/09 08:25:24;;;;;;;97.10;50.30;;;;;;;-3.92;53.78;102246.36;103533;1253;96526;-73
2024/01/09 08:27:51;;;;;;;78.20;44.20;;;;;;;-3.75;53.39;102245.10;104003;1249;110601;-72
2024/01/09 08:30:19;;;;;;;75.00;42.40;;;;;;;-3.60;52.93;102249.52;103502;1253;137804;-72
2024/01/09 08:32:46;;;;;;;70.60;42.10;;;;;;;-3.46;52.46;102249.30;103500;1251;96984;-74
2024/01/09 08:35:13;;;;;;;73.70;41.50;;;;;;;-3.37;52.17;102245.43;103386;1253;139518;-74
2024/01/09 08:37:40;;;;;;;74.80;43.30;;;;;;;-3.27;52.09;102247.15;103499;1251;96434;-73
2024/01/09 08:40:10;;;;;;;74.80;42.90;;;;;;;-3.15;51.56;102249.69;103618;1253;110193;-71
2024/01/09 08:42:37;;;;;;;76.90;42.70;;;;;;;-3.04;51.52;102248.94;101943;1251;1003211;-73
2024/01/09 08:45:04;;;;;;;71.00;40.70;;;;;;;-2.99;50.77;102248.86;102601;1252;1003695;-72
2024/01/09 08:47:31;;;;;;;69.30;43.40;;;;;;;-2.94;50.78;102253.22;103397;1253;138040;-73
2024/01/09 08:49:58;;;;;;;74.90;42.60;;;;;;;-2.92;50.46;102251.33;103541;1253;97422;-73
2024/01/09 08:52:25;;;;;;;76.40;42.00;;;;;;;-2.82;50.59;102251.16;103505;1253;109933;-72
2024/01/09 08:54:53;;;;;;;70.00;42.00;;;;;;;-2.71;50.61;102249.06;103385;1253;137949;-73
2024/01/09 08:57:21;;;;;;;73.00;41.80;;;;;;;-2.57;50.12;102255.58;103497;1250;1002500;-72
2024/01/09 08:59:48;;;;;;;79.40;44.00;;;;;;;-2.41;50.16;102257.80;103414;1251;138072;-72
2024/01/09 09:02:15;;;;;;;73.30;44.50;;;;;;;-2.25;50.41;102259.81;102916;1251;1003204;-73
2024/01/09 09:04:42;;;;;;;78.70;47.20;;;;;;;-1.96;50.36;102263.34;103939;1251;109340;-73
2024/01/09 09:07:09;;;;;;;82.20;48.80;;;;;;;-1.84;49.81;102261.23;103507;1251;107663;-71
2024/01/09 09:09:36;;;;;;;86.70;49.10;;;;;;;-1.69;49.53;102255.00;103484;1253;96444;-73
2024/01/09 09:12:03;;;;;;;82.60;49.00;;;;;;;-1.55;49.19;102247.00;103412;1251;137880;-72
2024/01/09 09:14:30;;;;;;;76.40;45.10;;;;;;;-1.46;48.80;102245.73;103544;1253;96444;-73
2024/01/09 09:16:57;;;;;;;77.80;47.90;;;;;;;-1.29;48.95;102243.16;103445;1253;139637;-73
2024/01/09 09:19:24;;;;;;;84.90;49.50;;;;;;;-1.11;48.60;102240.95;103520;1253;107488;-73
2024/01/09 09:21:53;;;;;;;82.90;48.50;;;;;;;-1.01;48.07;102240.20;103567;1250;96793;-73
2024/01/09 09:24:20;;;;;;;78.00;45.90;;;;;;;-0.98;47.66;102237.11;103428;1251;137859;-73
2024/01/09 09:26:47;;;;;;;80.90;46.70;;;;;;;-0.94;47.56;102232.48;103568;1253;96458;-72
2024/01/09 09:29:13;;;;;;;80.50;47.30;;;;;;;-0.85;47.18;102230.04;103465;1251;138524;-73
2024/01/09 09:31:57;;;;;;;75.40;45.40;;;;;;;-0.76;47.23;102238.10;102742;1251;1003737;-73
2024/01/09 09:34:24;;;;;;;68.10;41.20;;;;;;;-0.64;47.06;102237.49;103538;1251;96439;-73
2024/01/09 09:36:51;;;;;;;71.60;41.90;;;;;;;-0.48;46.63;102242.95;103389;1251;137498;-71
2024/01/09 09:39:18;;;;;;;75.60;42.30;;;;;;;-0.51;46.15;102238.77;103485;1251;96424;-74
2024/01/09 09:41:47;;;;;;;73.70;41.70;;;;;;;-0.61;45.68;102242.21;103450;1253;138401;-74
2024/01/09 09:44:17;;;;;;;76.60;44.30;;;;;;;-0.70;46.00;102239.42;103500;1253;106891;-72
2024/01/09 09:46:45;;;;;;;76.00;44.40;;;;;;;-0.58;46.37;102242.68;103545;1251;96685;-72
2024/01/09 09:49:14;;;;;;;78.70;46.10;;;;;;;-0.42;46.21;102238.61;103618;1251;107407;-72
2024/01/09 09:51:43;;;;;;;85.70;50.50;;;;;;;-0.33;46.12;102237.48;103473;1253;96335;-75
2024/01/09 09:54:11;;;;;;;87.60;48.20;;;;;;;-0.20;46.42;102234.80;102711;1251;1004073;-75
2024/01/09 09:56:39;;;;;;;82.30;48.80;;;;;;;-0.01;45.99;102231.52;102803;1256;1002956;-74
2024/01/09 09:59:11;;;;;;;83.90;49.40;;;;;;;0.14;45.83;102234.36;103532;1252;138667;-73
2024/01/09 10:01:55;;;;;;;89.10;51.80;;;;;;;0.22;45.25;102234.05;103562;1253;107513;-74
2024/01/09 10:04:35;;;;;;;87.40;49.20;;;;;;;0.32;45.53;102227.80;102762;1253;1003470;-74
2024/01/09 10:07:04;;;;;;;87.30;51.60;;;;;;;0.63;45.81;102226.29;102686;1251;1003128;-74
2024/01/09 10:09:37;;;;;;;85.80;52.20;;;;;;;0.95;45.67;102218.99;103494;1254;107791;-76
2024/01/09 10:12:04;;;;;;;85.60;49.00;;;;;;;1.19;45.40;102219.92;104871;1251;137466;-75
2024/01/09 10:14:32;;;;;;;81.20;50.00;;;;;;;1.42;45.26;102218.70;103572;1254;106899;-75
2024/01/09 10:17:03;;;;;;;87.50;51.60;;;;;;;1.63;44.81;102221.52;103427;1251;140020;-74
2024/01/09 10:19:30;;;;;;;82.50;47.90;;;;;;;1.85;44.67;102220.76;102828;1250;1003071;-74
2024/01/09 10:21:57;;;;;;;81.00;47.70;;;;;;;2.08;44.49;102216.06;101993;1253;1003136;-71
2024/01/09 10:24:24;;;;;;;77.00;46.90;;;;;;;2.35;44.20;102209.08;102658;1251;1141192;-70
2024/01/09 10:26:54;;;;;;;71.60;45.40;;;;;;;2.59;44.12;102209.52;103562;1255;108254;-73
2024/01/09 10:29:22;;;;;;;77.00;46.20;;;;;;;2.74;43.68;102204.31;103449;1254;137781;-74
2024/01/09 10:31:49;;;;;;;72.90;45.10;;;;;;;2.85;43.28;102206.20;103609;1253;110132;-73
2024/01/09 10:34:16;;;;;;;69.90;42.60;;;;;;;2.92;43.05;102203.83;102715;1251;1003212;-71
2024/01/09 10:36:43;;;;;;;70.80;41.80;;;;;;;2.93;42.40;102204.21;103489;1254;137713;-71
2024/01/09 10:39:11;;;;;;;67.90;42.10;;;;;;;2.99;42.45;102202.85;103384;1253;108309;-71
2024/01/09 10:41:40;;;;;;;67.60;41.00;;;;;;;2.99;42.20;102206.81;103453;1254;137986;-71
2024/01/09 10:44:08;;;;;;;67.80;40.10;;;;;;;2.99;41.98;102200.61;103558;1253;110339;-70
2024/01/09 10:46:36;;;;;;;72.10;42.20;;;;;;;3.08;42.24;102198.63;103508;1251;108100;-70
2024/01/09 10:49:06;;;;;;;73.70;45.10;;;;;;;3.02;41.39;102196.06;103475;1254;141714;-69
2024/01/09 10:51:34;;;;;;;75.70;43.30;;;;;;;2.90;41.57;102195.39;103247;1252;1003798;-69